Time,TemperatureF,DewpointF,PressureIn,WindDirection,WindDirectionDegrees,WindSpeedMPH,WindSpeedGustMPH,Humidity,HourlyPrecipIn,Conditions,Clouds,dailyrainin,SoftwareType,DateUTC
2013-01-14 00:00:00,26.0,23.2,30.44,NNW,331,0.0,0.0,89,0.00,,SKC,0.00,VWS V13.01,2013-01-14 08:00:00,
2013-01-14 00:10:00,26.0,23.2,30.44,NNW,331,0.0,0.0,89,0.00,,SKC,0.00,VWS V13.01,2013-01-14 08:10:00,
2013-01-14 00:20:00,26.0,23.2,30.44,NNW,331,0.0,0.0,89,0.00,,SKC,0.00,VWS V13.01,2013-01-14 08:20:00,
2013-01-14 00:30:00,26.0,23.2,30.44,NNW,331,0.0,0.0,89,0.00,,SKC,0.00,VWS V13.01,2013-01-14 08:30:00,
2013-01-14 00:40:00,26.0,23.2,30.44,NNW,331,0.0,0.0,89,0.00,,SKC,0.00,VWS V13.01,2013-01-14 08:40:00,
2013-01-14 00:50:00,26.0,23.2,30.44,NNW,331,0.0,0.0,89,0.00,,SKC,0.00,VWS V13.01,2013-01-14 08:50:00,
2013-01-14 01:00:00,26.1,23.3,30.44,NNW,331,0.0,0.0,89,0.00,,SKC,0.00,VWS V13.01,2013-01-14 09:00:00,
2013-01-14 01:10:00,26.1,23.6,30.44,NNW,331,0.0,0.0,90,0.00,,SKC,0.00,VWS V13.01,2013-01-14 09:10:00,
2013-01-14 01:20:00,26.1,23.6,30.44,NNW,331,0.0,0.0,90,0.00,,SKC,0.00,VWS V13.01,2013-01-14 09:20:00,
2013-01-14 01:30:00,26.3,23.8,30.44,NNW,331,0.0,0.0,90,0.00,,SKC,0.00,VWS V13.01,2013-01-14 09:30:00,
2013-01-14 01:40:00,26.3,23.8,30.44,NNW,331,0.0,0.0,90,0.00,,SKC,0.00,VWS V13.01,2013-01-14 09:40:00,
2013-01-14 01:50:00,26.3,23.8,30.44,NNW,331,0.0,0.0,90,0.00,,SKC,0.00,VWS V13.01,2013-01-14 09:50:00,
2013-01-14 02:00:00,26.3,23.8,30.44,NNW,331,0.0,0.0,90,0.00,,SKC,0.00,VWS V13.01,2013-01-14 10:00:00,
2013-01-14 02:10:00,26.4,23.9,30.44,NNW,331,0.0,0.0,90,0.00,,SKC,0.00,VWS V13.01,2013-01-14 10:10:00,
2013-01-14 02:20:00,26.6,24.1,30.44,NNW,331,0.0,0.0,90,0.00,,SKC,0.00,VWS V13.01,2013-01-14 10:20:00,
2013-01-14 02:30:00,26.6,24.1,30.45,NNW,331,0.0,0.0,90,0.00,,SKC,0.00,VWS V13.01,2013-01-14 10:30:00,
2013-01-14 02:40:00,26.6,24.1,30.45,NNW,331,0.0,0.0,90,0.00,,SKC,0.00,VWS V13.01,2013-01-14 10:40:00,
2013-01-14 02:50:00,26.6,24.1,30.44,NNW,331,0.0,0.0,90,0.00,,SKC,0.00,VWS V13.01,2013-01-14 10:50:00,
2013-01-14 03:00:00,26.6,24.1,30.45,NNW,331,0.0,0.0,90,0.00,,SKC,0.00,VWS V13.01,2013-01-14 11:00:00,
2013-01-14 03:10:00,26.7,24.2,30.45,NNW,331,0.0,0.0,90,0.00,,SKC,0.00,VWS V13.01,2013-01-14 11:10:00,
2013-01-14 03:20:00,26.7,24.2,30.46,NNW,331,0.0,0.0,90,0.00,,SKC,0.00,VWS V13.01,2013-01-14 11:20:00,
2013-01-14 03:30:00,26.7,24.2,30.46,NNW,331,0.0,0.0,90,0.00,,SKC,0.00,VWS V13.01,2013-01-14 11:30:00,
2013-01-14 03:40:00,26.7,23.9,30.46,NNW,331,0.0,0.0,89,0.00,,SKC,0.00,VWS V13.01,2013-01-14 11:40:00,
2013-01-14 03:50:00,26.9,24.1,30.45,NNW,331,0.0,0.0,89,0.00,,SKC,0.00,VWS V13.01,2013-01-14 11:50:00,
2013-01-14 04:00:00,26.7,23.9,30.45,NNW,331,0.0,0.0,89,0.00,,SKC,0.00,VWS V13.01,2013-01-14 12:00:00,
2013-01-14 04:10:00,26.9,24.1,30.45,NNW,331,0.0,0.0,89,0.00,,SKC,0.00,VWS V13.01,2013-01-14 12:10:00,
2013-01-14 04:20:00,26.9,24.1,30.45,NNW,328,0.0,0.0,89,0.00,,SKC,0.00,VWS V13.01,2013-01-14 12:20:00,
2013-01-14 04:30:00,26.9,24.1,30.44,SSW,201,0.0,0.0,89,0.00,,SKC,0.00,VWS V13.01,2013-01-14 12:30:00,
2013-01-14 04:40:00,26.9,23.8,30.44,SSW,201,0.0,0.0,88,0.00,,SKC,0.00,VWS V13.01,2013-01-14 12:40:00,
2013-01-14 04:50:00,26.7,23.6,30.44,SSW,201,0.0,0.0,88,0.00,,SKC,0.00,VWS V13.01,2013-01-14 12:50:00,
2013-01-14 05:00:00,26.9,23.8,30.46,SSW,200,0.0,0.0,88,0.00,,SKC,0.00,VWS V13.01,2013-01-14 13:00:00,
2013-01-14 05:10:00,26.7,23.6,30.46,SSW,201,0.0,0.0,88,0.00,,SKC,0.00,VWS V13.01,2013-01-14 13:10:00,
2013-01-14 05:20:00,26.9,23.8,30.47,SSW,201,0.0,0.0,88,0.00,,SKC,0.00,VWS V13.01,2013-01-14 13:20:00,
2013-01-14 05:30:00,26.7,23.6,30.47,SSW,200,0.0,0.0,88,0.00,,SKC,0.00,VWS V13.01,2013-01-14 13:30:00,
2013-01-14 05:40:00,26.7,23.6,30.47,SSW,201,0.0,0.0,88,0.00,,SKC,0.00,VWS V13.01,2013-01-14 13:40:00,
2013-01-14 05:50:00,26.9,23.8,30.47,SSW,201,0.0,0.0,88,0.00,,SKC,0.00,VWS V13.01,2013-01-14 13:50:00,
2013-01-14 06:00:00,26.7,23.6,30.49,SSW,201,0.0,0.0,88,0.00,,SKC,0.00,VWS V13.01,2013-01-14 14:00:00,
2013-01-14 06:10:00,26.7,23.6,30.49,SW,233,0.0,0.0,88,0.00,,SKC,0.00,VWS V13.01,2013-01-14 14:10:00,
2013-01-14 06:20:00,26.7,23.6,30.47,South,176,0.0,0.0,88,0.00,,SKC,0.00,VWS V13.01,2013-01-14 14:20:00,
2013-01-14 06:30:00,26.7,23.6,30.47,South,184,0.0,0.0,88,0.00,,SKC,0.00,VWS V13.01,2013-01-14 14:30:00,
2013-01-14 06:40:00,26.9,23.6,30.47,WSW,254,0.0,0.0,87,0.00,,SKC,0.00,VWS V13.01,2013-01-14 14:40:00,
2013-01-14 06:50:00,26.7,23.4,30.49,WSW,253,0.0,0.0,87,0.00,,SKC,0.00,VWS V13.01,2013-01-14 14:50:00,
2013-01-14 07:00:00,26.7,23.4,30.49,WSW,248,0.0,0.0,87,0.00,,SKC,0.00,VWS V13.01,2013-01-14 15:00:00,
2013-01-14 07:10:00,26.6,23.3,30.49,SW,225,0.0,0.0,87,0.00,,SKC,0.00,VWS V13.01,2013-01-14 15:10:00,
2013-01-14 07:20:00,26.4,23.1,30.49,SW,227,0.0,0.0,87,0.00,,SKC,0.00,VWS V13.01,2013-01-14 15:20:00,
2013-01-14 07:30:00,26.4,23.3,30.49,SW,226,0.0,0.0,88,0.00,,SKC,0.00,VWS V13.01,2013-01-14 15:30:00,
2013-01-14 07:40:00,26.4,23.3,30.49,SW,226,0.0,0.0,88,0.00,,SKC,0.00,VWS V13.01,2013-01-14 15:40:00,
2013-01-14 07:50:00,26.6,23.5,30.50,SW,226,0.0,0.0,88,0.00,,SKC,0.00,VWS V13.01,2013-01-14 15:50:00,
2013-01-14 08:00:00,26.6,23.5,30.50,SW,226,0.0,0.0,88,0.00,,SKC,0.00,VWS V13.01,2013-01-14 16:00:00,
2013-01-14 08:10:00,26.6,23.5,30.50,SW,226,0.0,0.0,88,0.00,,SKC,0.00,VWS V13.01,2013-01-14 16:10:00,
2013-01-14 08:20:00,26.7,23.6,30.50,South,178,0.0,0.0,88,0.00,,SKC,0.00,VWS V13.01,2013-01-14 16:20:00,
2013-01-14 08:30:00,26.7,23.6,30.49,SSW,195,0.0,0.0,88,0.00,,SKC,0.00,VWS V13.01,2013-01-14 16:30:00,
2013-01-14 08:40:00,26.7,23.4,30.49,SE,141,0.0,0.0,87,0.00,,SKC,0.00,VWS V13.01,2013-01-14 16:40:00,
2013-01-14 08:50:00,26.6,23.3,30.49,South,181,0.0,0.0,87,0.00,,SKC,0.00,VWS V13.01,2013-01-14 16:50:00,
2013-01-14 09:00:00,26.9,23.6,30.50,South,181,0.0,0.0,87,0.00,,SKC,0.00,VWS V13.01,2013-01-14 17:00:00,
2013-01-14 09:10:00,27.0,23.6,30.50,South,179,0.0,0.0,87,0.00,,SKC,0.00,VWS V13.01,2013-01-14 17:10:00,
2013-01-14 09:20:00,27.2,23.9,30.50,SE,145,0.0,0.0,87,0.00,,SKC,0.00,VWS V13.01,2013-01-14 17:20:00,
2013-01-14 09:30:00,27.2,23.6,30.50,South,182,0.0,0.0,86,0.00,,SKC,0.00,VWS V13.01,2013-01-14 17:30:00,
2013-01-14 09:40:00,27.5,23.9,30.50,South,174,0.0,0.0,86,0.00,,SKC,0.00,VWS V13.01,2013-01-14 17:40:00,
2013-01-14 09:50:00,27.5,23.9,30.52,SSW,206,0.0,0.0,86,0.00,,SKC,0.00,VWS V13.01,2013-01-14 17:50:00,
2013-01-14 10:00:00,27.8,24.2,30.50,SSW,205,0.0,0.0,86,0.00,,SKC,0.00,VWS V13.01,2013-01-14 18:00:00,
2013-01-14 10:10:00,28.4,24.8,30.50,SW,228,0.0,0.0,86,0.00,,SKC,0.00,VWS V13.01,2013-01-14 18:10:00,
2013-01-14 10:20:00,28.4,24.5,30.52,SW,214,0.0,0.0,85,0.00,,SKC,0.00,VWS V13.01,2013-01-14 18:20:00,
2013-01-14 10:30:00,28.5,24.3,30.52,WSW,243,0.0,0.0,84,0.00,,SKC,0.00,VWS V13.01,2013-01-14 18:30:00,
2013-01-14 10:40:00,28.7,24.8,30.52,WSW,245,0.0,0.0,85,0.00,,SKC,0.00,VWS V13.01,2013-01-14 18:40:00,
2013-01-14 10:50:00,28.7,24.8,30.52,WSW,245,0.0,0.0,85,0.00,,SKC,0.00,VWS V13.01,2013-01-14 18:50:00,
2013-01-14 11:00:00,28.7,24.8,30.52,WSW,245,0.0,0.0,85,0.00,,SKC,0.00,VWS V13.01,2013-01-14 19:00:00,
2013-01-14 11:10:00,29.1,25.2,30.52,WSW,244,0.0,0.0,85,0.00,,SKC,0.00,VWS V13.01,2013-01-14 19:10:00,
2013-01-14 11:20:00,29.3,25.1,30.51,SW,236,0.0,0.0,84,0.00,,SKC,0.00,VWS V13.01,2013-01-14 19:20:00,
2013-01-14 11:30:00,29.4,25.2,30.51,WSW,249,0.0,0.0,84,0.00,,SKC,0.00,VWS V13.01,2013-01-14 19:30:00,
2013-01-14 11:40:00,29.5,25.3,30.51,SSW,196,0.0,0.0,84,0.00,,SKC,0.00,VWS V13.01,2013-01-14 19:40:00,
2013-01-14 11:50:00,29.5,25.6,30.50,WSW,240,0.0,0.0,85,0.00,,SKC,0.00,VWS V13.01,2013-01-14 19:50:00,
2013-01-14 12:00:00,29.7,25.8,30.49,South,179,0.0,0.0,85,0.00,,SKC,0.00,VWS V13.01,2013-01-14 20:00:00,
2013-01-14 12:10:00,29.8,25.9,30.49,SW,232,0.0,0.0,85,0.00,,SKC,0.00,VWS V13.01,2013-01-14 20:10:00,
2013-01-14 12:20:00,29.8,25.9,30.49,SW,219,0.0,0.0,85,0.00,,SKC,0.00,VWS V13.01,2013-01-14 20:20:00,
2013-01-14 12:30:00,30.3,26.3,30.49,SW,220,0.0,0.0,85,0.00,,SKC,0.00,VWS V13.01,2013-01-14 20:30:00,
2013-01-14 12:40:00,30.4,26.1,30.49,SW,227,0.0,0.0,84,0.00,,SKC,0.00,VWS V13.01,2013-01-14 20:40:00,
2013-01-14 12:50:00,30.6,26.4,30.48,SW,217,0.0,0.0,84,0.00,,SKC,0.00,VWS V13.01,2013-01-14 20:50:00,
2013-01-14 13:00:00,31.5,26.9,30.48,SW,226,0.0,0.0,83,0.00,,SKC,0.00,VWS V13.01,2013-01-14 21:00:00,
2013-01-14 13:10:00,31.2,26.4,30.48,SW,227,0.0,0.0,82,0.00,,SKC,0.00,VWS V13.01,2013-01-14 21:10:00,
2013-01-14 13:20:00,31.8,26.9,30.47,SW,233,0.0,0.0,82,0.00,,SKC,0.00,VWS V13.01,2013-01-14 21:20:00,
2013-01-14 13:30:00,31.9,27.0,30.48,SW,233,0.0,0.0,82,0.00,,SKC,0.00,VWS V13.01,2013-01-14 21:30:00,
2013-01-14 13:40:00,32.5,27.3,30.48,SW,233,0.0,0.0,81,0.00,,SKC,0.00,VWS V13.01,2013-01-14 21:40:00,
2013-01-14 13:50:00,32.4,27.2,30.48,WNW,286,0.0,0.0,81,0.00,,SKC,0.00,VWS V13.01,2013-01-14 21:50:00,
2013-01-14 14:00:00,32.7,27.5,30.49,WNW,295,0.0,0.0,81,0.00,,SKC,0.00,VWS V13.01,2013-01-14 22:00:00,
2013-01-14 14:10:00,32.7,27.5,30.49,WNW,288,0.0,0.0,81,0.00,,SKC,0.00,VWS V13.01,2013-01-14 22:10:00,
2013-01-14 14:20:00,33.1,27.9,30.49,WSW,257,0.0,0.0,81,0.00,,SKC,0.00,VWS V13.01,2013-01-14 22:20:00,
2013-01-14 14:30:00,33.7,28.2,30.50,West,264,0.0,0.0,80,0.00,,SKC,0.00,VWS V13.01,2013-01-14 22:30:00,
2013-01-14 14:40:00,33.4,27.6,30.50,WNW,286,0.0,0.0,79,0.00,,SKC,0.00,VWS V13.01,2013-01-14 22:40:00,
2013-01-14 14:50:00,33.7,28.2,30.50,SSW,213,0.0,0.0,80,0.00,,SKC,0.00,VWS V13.01,2013-01-14 22:50:00,
2013-01-14 15:00:00,33.8,28.0,30.50,SSW,207,0.0,0.0,79,0.00,,SKC,0.00,VWS V13.01,2013-01-14 23:00:00,
2013-01-14 15:10:00,34.1,28.0,30.50,South,191,0.0,0.0,78,0.00,,SKC,0.00,VWS V13.01,2013-01-14 23:10:00,
2013-01-14 15:20:00,34.1,28.0,30.49,SSW,200,0.0,0.0,78,0.00,,SKC,0.00,VWS V13.01,2013-01-14 23:20:00,
2013-01-14 15:30:00,34.7,28.5,30.49,SSW,200,0.0,0.0,78,0.00,,SKC,0.00,VWS V13.01,2013-01-14 23:30:00,
2013-01-14 15:40:00,34.7,28.5,30.49,SSW,200,0.0,0.0,78,0.00,,SKC,0.00,VWS V13.01,2013-01-14 23:40:00,
2013-01-14 15:50:00,34.7,28.9,30.49,SSW,200,0.0,0.0,79,0.00,,SKC,0.00,VWS V13.01,2013-01-14 23:50:00,
2013-01-14 16:00:00,34.9,29.1,30.48,SSW,200,0.0,0.0,79,0.00,,SKC,0.00,VWS V13.01,2013-01-15 00:00:00,
2013-01-14 16:10:00,34.7,28.9,30.48,SSW,200,0.0,0.0,79,0.00,,SKC,0.00,VWS V13.01,2013-01-15 00:10:00,
2013-01-14 16:20:00,34.7,28.9,30.48,SSW,200,0.0,0.0,79,0.00,,SKC,0.00,VWS V13.01,2013-01-15 00:20:00,
2013-01-14 16:30:00,34.7,28.9,30.48,SSW,200,0.0,0.0,79,0.00,,SKC,0.00,VWS V13.01,2013-01-15 00:30:00,
2013-01-14 16:43:00,34.7,29.2,30.48,North,0,0.0,0.0,80,0.00,,SKC,0.00,VWS V13.01,2013-01-15 00:43:00,
2013-01-14 16:50:00,34.7,29.2,30.48,SSW,200,0.0,0.0,80,0.00,,SKC,0.00,VWS V13.01,2013-01-15 00:50:00,
2013-01-14 17:00:00,34.7,29.2,30.49,SSW,200,0.0,0.0,80,0.00,,SKC,0.00,VWS V13.01,2013-01-15 01:00:00,
2013-01-14 17:10:00,34.6,29.1,30.49,SSW,200,0.0,0.0,80,0.00,,SKC,0.00,VWS V13.01,2013-01-15 01:10:00,
2013-01-14 17:20:00,34.1,28.9,30.49,SSW,200,0.0,0.0,81,0.00,,SKC,0.00,VWS V13.01,2013-01-15 01:20:00,
2013-01-14 17:30:00,33.8,28.9,30.49,SSW,204,0.0,0.0,82,0.00,,SKC,0.00,VWS V13.01,2013-01-15 01:30:00,
2013-01-14 17:40:00,33.7,28.8,30.49,SSW,204,0.0,0.0,82,0.00,,SKC,0.00,VWS V13.01,2013-01-15 01:40:00,
2013-01-14 17:50:00,33.5,28.6,30.49,SSW,204,0.0,0.0,82,0.00,,SKC,0.00,VWS V13.01,2013-01-15 01:50:00,
2013-01-14 18:00:00,33.7,28.8,30.49,SSW,204,0.0,0.0,82,0.00,,SKC,0.00,VWS V13.01,2013-01-15 02:00:00,
2013-01-14 18:10:00,33.7,28.8,30.49,SSW,204,0.0,0.0,82,0.00,,SKC,0.00,VWS V13.01,2013-01-15 02:10:00,
2013-01-14 18:20:00,33.8,28.9,30.49,SSW,204,0.0,0.0,82,0.00,,SKC,0.00,VWS V13.01,2013-01-15 02:20:00,
2013-01-14 18:30:00,33.7,29.1,30.49,SSW,204,0.0,0.0,83,0.00,,SKC,0.00,VWS V13.01,2013-01-15 02:30:00,
2013-01-14 18:40:00,33.5,28.9,30.49,SSW,204,0.0,0.0,83,0.00,,SKC,0.00,VWS V13.01,2013-01-15 02:40:00,
2013-01-14 18:50:00,33.5,29.2,30.49,SSW,204,0.0,0.0,84,0.00,,SKC,0.00,VWS V13.01,2013-01-15 02:50:00,
2013-01-14 19:00:00,33.5,29.2,30.49,SSW,204,0.0,0.0,84,0.00,,SKC,0.00,VWS V13.01,2013-01-15 03:00:00,
2013-01-14 19:10:00,33.7,29.4,30.49,SSW,203,0.0,0.0,84,0.00,,SKC,0.00,VWS V13.01,2013-01-15 03:10:00,
2013-01-14 19:20:00,33.5,29.2,30.49,SSW,203,0.0,0.0,84,0.00,,SKC,0.00,VWS V13.01,2013-01-15 03:20:00,
2013-01-14 19:30:00,33.7,29.4,30.50,SSW,204,0.0,0.0,84,0.00,,SKC,0.00,VWS V13.01,2013-01-15 03:30:00,
2013-01-14 19:40:00,33.7,29.4,30.50,SSW,204,0.0,0.0,84,0.00,,SKC,0.00,VWS V13.01,2013-01-15 03:40:00,
2013-01-14 19:50:00,33.8,29.5,30.50,SSW,204,0.0,0.0,84,0.00,,SKC,0.00,VWS V13.01,2013-01-15 03:50:00,
2013-01-14 20:00:00,33.8,29.5,30.50,SSW,204,0.0,0.0,84,0.00,,SKC,0.00,VWS V13.01,2013-01-15 04:00:00,
2013-01-14 20:10:00,33.8,29.5,30.50,SSW,204,0.0,0.0,84,0.00,,SKC,0.00,VWS V13.01,2013-01-15 04:10:00,
2013-01-14 20:20:00,34.0,29.7,30.50,SSW,204,0.0,0.0,84,0.00,,SKC,0.00,VWS V13.01,2013-01-15 04:20:00,
2013-01-14 20:30:00,33.8,29.5,30.50,SSW,204,0.0,0.0,84,0.00,,SKC,0.00,VWS V13.01,2013-01-15 04:30:00,
2013-01-14 20:40:00,34.0,29.7,30.50,SSW,203,0.0,0.0,84,0.00,,SKC,0.00,VWS V13.01,2013-01-15 04:40:00,
2013-01-14 20:50:00,34.0,30.0,30.50,SSW,204,0.0,0.0,85,0.00,,SKC,0.00,VWS V13.01,2013-01-15 04:50:00,
2013-01-14 21:00:00,34.0,30.0,30.50,SSW,204,0.0,0.0,85,0.00,,SKC,0.00,VWS V13.01,2013-01-15 05:00:00,
2013-01-14 21:10:00,34.0,30.0,30.50,SSW,204,0.0,0.0,85,0.00,,SKC,0.00,VWS V13.01,2013-01-15 05:10:00,
2013-01-14 21:20:00,34.0,30.0,30.50,SSW,204,0.0,0.0,85,0.00,,SKC,0.00,VWS V13.01,2013-01-15 05:20:00,
2013-01-14 21:30:00,34.1,30.1,30.50,SSW,204,0.0,0.0,85,0.00,,SKC,0.00,VWS V13.01,2013-01-15 05:30:00,
2013-01-14 21:40:00,34.3,30.3,30.50,SSW,204,0.0,0.0,85,0.00,,SKC,0.00,VWS V13.01,2013-01-15 05:40:00,
2013-01-14 21:50:00,34.3,30.3,30.50,SSW,204,0.0,0.0,85,0.00,,SKC,0.00,VWS V13.01,2013-01-15 05:50:00,
2013-01-14 22:00:00,34.3,30.3,30.50,SSW,204,0.0,0.0,85,0.00,,SKC,0.00,VWS V13.01,2013-01-15 06:00:00,
2013-01-14 22:10:00,34.4,30.4,30.50,SSW,204,0.0,0.0,85,0.00,,SKC,0.00,VWS V13.01,2013-01-15 06:10:00,
2013-01-14 22:20:00,34.4,30.4,30.50,SSW,204,0.0,0.0,85,0.00,,SKC,0.00,VWS V13.01,2013-01-15 06:20:00,
2013-01-14 22:30:00,34.7,30.7,30.50,SSW,204,0.0,0.0,85,0.00,,SKC,0.00,VWS V13.01,2013-01-15 06:30:00,
2013-01-14 22:40:00,34.9,30.9,30.50,SSW,204,0.0,0.0,85,0.00,,SKC,0.00,VWS V13.01,2013-01-15 06:40:00,
2013-01-14 22:50:00,34.9,30.9,30.50,SSW,204,0.0,0.0,85,0.00,,SKC,0.00,VWS V13.01,2013-01-15 06:50:00,
2013-01-14 23:00:00,34.9,30.9,30.49,SSW,204,0.0,0.0,85,0.00,,SKC,0.00,VWS V13.01,2013-01-15 07:00:00,
2013-01-14 23:10:00,34.6,30.6,30.49,SSW,204,0.0,0.0,85,0.00,,SKC,0.00,VWS V13.01,2013-01-15 07:10:00,
2013-01-14 23:20:00,34.3,30.6,30.49,SSW,203,0.0,0.0,86,0.00,,SKC,0.00,VWS V13.01,2013-01-15 07:20:00,
2013-01-14 23:30:00,34.1,30.4,30.49,SSW,204,0.0,0.0,86,0.00,,SKC,0.00,VWS V13.01,2013-01-15 07:30:00,
2013-01-14 23:40:00,33.7,30.2,30.49,SSW,204,0.0,0.0,87,0.00,,SKC,0.00,VWS V13.01,2013-01-15 07:40:00,
2013-01-14 23:50:00,33.2,29.8,30.50,SSW,204,0.0,0.0,87,0.00,,SKC,0.00,VWS V13.01,2013-01-15 07:50:00,